Time;durP1;ratioP1;P1;durP2;ratioP2;P2;SDS_P1;SDS_P2;PMS_P1;PMS_P2;Temp;Humidity;BMP_temperature;BMP_pressure;BME280_temperature;BME280_humidity;BME280_pressure;Samples;Min_cycle;Max_cycle;Signal;HPM_P1;HPM_P2
2021/10/24 00:00:05;;;;;;;;;;;;;;;28.04;74.39;101070.31;5046466;28;70595;-35
2021/10/24 00:02:39;;;;;;;;;;;;;;;28.10;75.00;101062.50;5050345;28;66378;-35
2021/10/24 00:05:10;;;;;;;;;;;;;;;28.12;74.78;101065.81;5046641;28;69248;-35
2021/10/24 00:07:40;;;;;;;;;;;;;;;28.16;74.93;101064.38;5050289;28;66574;-35
2021/10/24 00:10:11;;;;;;;;;;;;;;;28.20;74.86;101069.19;5051192;27;69277;-36
2021/10/24 00:12:41;;;;;;;;;;;;;;;28.22;72.92;101061.75;5053018;28;65881;-36
2021/10/24 00:15:12;;;;;;;;;;;;;;;28.29;75.44;101067.19;5050438;28;69467;-35
2021/10/24 00:17:42;;;;;;;;;;;;;;;28.28;75.72;101066.34;5055701;28;65726;-35
2021/10/24 00:20:13;;;;;;;;;;;;;;;28.35;75.77;101070.94;5048259;28;69406;-35
2021/10/24 00:22:43;;;;;;;;;;;;;;;28.38;75.83;101082.16;5068979;28;65488;-35
2021/10/24 00:25:14;;;;;;;;;;;;;;;28.38;76.01;101087.56;5045688;28;70073;-35
2021/10/24 00:27:44;;;;;;;;;;;;;;;28.39;76.56;101089.25;5047383;28;65892;-35
2021/10/24 00:30:15;;;;;;;;;;;;;;;28.37;77.03;101085.91;5052659;28;70178;-35
2021/10/24 00:32:45;;;;;;;;;;;;;;;28.40;76.79;101080.09;5049424;28;66724;-35
2021/10/24 00:35:16;;;;;;;;;;;;;;;28.42;77.16;101083.47;5056236;28;70002;-35
2021/10/24 00:37:47;;;;;;;;;;;;;;;28.43;77.26;101082.44;5045355;28;66419;-36
2021/10/24 00:40:18;;;;;;;;;;;;;;;28.45;77.09;101083.06;5035867;28;69064;-35
2021/10/24 00:42:50;;;;;;;;;;;;;;;28.46;77.89;101084.72;5048173;28;66940;-36
2021/10/24 00:45:23;;;;;;;;;;;;;;;28.45;78.17;101088.47;5050408;28;70315;-35
2021/10/24 00:47:54;;;;;;;;;;;;;;;28.43;79.11;101097.78;5046524;28;66411;-36
2021/10/24 00:50:26;;;;;;;;;;;;;;;28.43;79.14;101098.63;5062406;28;69821;-36
2021/10/24 00:52:59;;;;;;;;;;;;;;;28.40;79.02;101101.69;5050717;28;66569;-36
2021/10/24 00:55:30;;;;;;;;;;;;;;;28.40;79.19;101101.69;5063890;28;69921;-36
2021/10/24 00:58:01;;;;;;;;;;;;;;;28.38;79.36;101106.44;5046288;28;67680;-36
2021/10/24 01:00:32;;;;;;;;;;;;;;;28.37;79.70;101107.50;5046241;28;68988;-36
2021/10/24 01:03:03;;;;;;;;;;;;;;;28.36;79.61;101105.84;5044149;28;66391;-36
2021/10/24 01:05:34;;;;;;;;;;;;;;;28.40;79.47;101107.09;5048656;28;69424;-36
2021/10/24 01:08:08;;;;;;;;;;;;;;;28.41;79.37;101114.13;5042687;28;66942;-36
2021/10/24 01:10:39;;;;;;;;;;;;;;;28.45;79.35;101120.84;5049793;28;70088;-35
2021/10/24 01:13:10;;;;;;;;;;;;;;;28.48;79.45;101119.63;5046658;28;65912;-36
2021/10/24 01:15:40;;;;;;;;;;;;;;;28.49;78.77;101122.13;5053659;28;69982;-37
2021/10/24 01:18:11;;;;;;;;;;;;;;;28.48;78.29;101125.84;5053623;28;66685;-35
2021/10/24 01:20:41;;;;;;;;;;;;;;;28.50;78.17;101123.78;5051184;28;69780;-37
2021/10/24 01:23:12;;;;;;;;;;;;;;;28.54;77.90;101134.19;5065558;27;65801;-37
2021/10/24 01:25:42;;;;;;;;;;;;;;;28.55;77.91;101131.28;5052685;28;69961;-36
2021/10/24 01:28:13;;;;;;;;;;;;;;;28.61;77.90;101130.50;5054522;28;65823;-36
2021/10/24 01:30:44;;;;;;;;;;;;;;;28.65;77.25;101131.75;5044425;28;69581;-36
2021/10/24 01:33:15;;;;;;;;;;;;;;;28.70;77.00;101123.06;5056517;28;64949;-37
2021/10/24 01:35:52;;;;;;;;;;;;;;;28.73;77.05;101111.88;5058292;28;70730;-38
2021/10/24 01:38:23;;;;;;;;;;;;;;;28.80;77.23;101107.31;5048399;28;65484;-36
2021/10/24 01:40:55;;;;;;;;;;;;;;;28.82;77.47;101107.97;5058432;28;69160;-37
2021/10/24 01:43:27;;;;;;;;;;;;;;;28.84;77.24;101103.19;5038866;28;65568;-36
2021/10/24 01:45:58;;;;;;;;;;;;;;;28.90;77.14;101113.19;5055063;28;69982;-35
2021/10/24 01:48:29;;;;;;;;;;;;;;;28.92;77.16;101116.53;5066613;28;66719;-36
2021/10/24 01:50:59;;;;;;;;;;;;;;;28.99;76.66;101110.31;5067247;28;69873;-36
2021/10/24 01:53:31;;;;;;;;;;;;;;;29.04;77.07;101113.28;5056196;28;66462;-36
2021/10/24 01:56:02;;;;;;;;;;;;;;;29.09;76.18;101110.81;5036303;28;70542;-36
2021/10/24 01:58:36;;;;;;;;;;;;;;;29.13;75.49;101106.66;5051472;28;65562;-36
2021/10/24 02:01:07;;;;;;;;;;;;;;;29.15;75.12;101110.81;5046805;28;69570;-37
2021/10/24 02:04:00;;;;;;;;;;;;;;;29.16;75.30;101106.25;5067952;28;66331;-35
2021/10/24 02:06:50;;;;;;;;;;;;;;;29.06;75.61;101086.88;5047512;28;70429;-37
2021/10/24 02:09:22;;;;;;;;;;;;;;;29.17;75.16;101111.47;5062795;28;66353;-36
2021/10/24 02:11:53;;;;;;;;;;;;;;;29.17;75.04;101118.75;5041364;28;69483;-37
2021/10/24 02:14:25;;;;;;;;;;;;;;;29.18;74.61;101120.38;5031323;28;65652;-36
2021/10/24 02:16:56;;;;;;;;;;;;;;;29.22;73.97;101127.03;5069092;28;70535;-36
2021/10/24 02:19:27;;;;;;;;;;;;;;;29.23;73.73;101117.91;5054738;28;65445;-36
2021/10/24 02:21:58;;;;;;;;;;;;;;;29.29;74.04;101116.28;5055913;28;69201;-36
2021/10/24 02:24:32;;;;;;;;;;;;;;;29.34;73.68;101117.31;5067233;28;66549;-36
2021/10/24 02:27:04;;;;;;;;;;;;;;;29.38;73.27;101104.22;5046131;28;70180;-37
2021/10/24 02:29:35;;;;;;;;;;;;;;;29.40;72.85;101099.47;5033577;28;65781;-36
2021/10/24 02:32:05;;;;;;;;;;;;;;;29.45;73.56;101115.03;5066596;28;70258;-37
2021/10/24 02:34:46;;;;;;;;;;;;;;;29.49;73.14;101113.59;5070424;28;66545;-37
2021/10/24 02:37:33;;;;;;;;;;;;;;;29.52;72.92;101113.19;5074474;27;69236;-36
2021/10/24 02:40:09;;;;;;;;;;;;;;;29.55;72.87;101115.47;5056625;28;65738;-36
2021/10/24 02:42:41;;;;;;;;;;;;;;;29.57;72.81;101114.25;5049592;28;69651;-36
2021/10/24 02:45:17;;;;;;;;;;;;;;;29.60;72.73;101108.41;5057152;28;66705;-36
2021/10/24 02:47:49;;;;;;;;;;;;;;;29.64;72.56;101119.66;5050386;28;70442;-36
2021/10/24 02:50:19;;;;;;;;;;;;;;;29.66;72.65;101114.06;5065820;28;65813;-36
2021/10/24 02:52:52;;;;;;;;;;;;;;;29.68;72.27;101114.72;5071191;28;70267;-36
2021/10/24 02:55:23;;;;;;;;;;;;;;;29.70;72.37;101118.88;5052332;28;66364;-36
2021/10/24 02:57:56;;;;;;;;;;;;;;;29.71;72.44;101115.13;5062537;28;69897;-37
2021/10/24 03:00:27;;;;;;;;;;;;;;;29.73;72.29;101107.63;5053724;28;66439;-36
2021/10/24 03:02:58;;;;;;;;;;;;;;;29.77;72.59;101116.16;5039093;28;69842;-36
2021/10/24 03:05:29;;;;;;;;;;;;;;;29.79;72.19;101111.38;5056235;28;66252;-35
2021/10/24 03:08:00;;;;;;;;;;;;;;;29.81;71.98;101112.84;5062003;28;69154;-36
2021/10/24 03:10:31;;;;;;;;;;;;;;;29.83;72.32;101102.63;5050069;28;67027;-36
2021/10/24 03:13:04;;;;;;;;;;;;;;;29.87;72.51;101102.25;5042113;28;69799;-36
2021/10/24 03:15:35;;;;;;;;;;;;;;;29.88;71.81;101090.38;5046035;28;65998;-36
2021/10/24 03:18:06;;;;;;;;;;;;;;;29.92;71.88;101088.91;5053761;28;70352;-36
2021/10/24 03:20:38;;;;;;;;;;;;;;;29.92;71.86;101081.66;5054446;28;66586;-36
2021/10/24 03:23:08;;;;;;;;;;;;;;;29.95;71.66;101083.06;5044534;28;70168;-36
2021/10/24 03:25:39;;;;;;;;;;;;;;;29.71;71.75;101039.41;5057349;28;65460;-36
2021/10/24 03:28:09;;;;;;;;;;;;;;;29.98;72.02;101077.28;5057020;28;70393;-36
2021/10/24 03:30:40;;;;;;;;;;;;;;;30.00;72.19;101086.81;5055239;28;66491;-36
2021/10/24 03:33:11;;;;;;;;;;;;;;;30.03;72.05;101085.56;5059214;28;70177;-37
2021/10/24 03:35:42;;;;;;;;;;;;;;;30.05;71.48;101083.50;5074966;27;66680;-39
2021/10/24 03:38:13;;;;;;;;;;;;;;;30.07;71.99;101070.59;5054143;28;69415;-37
2021/10/24 03:40:44;;;;;;;;;;;;;;;30.10;71.94;101072.88;5056572;28;65541;-37
2021/10/24 03:43:14;;;;;;;;;;;;;;;30.12;71.89;101068.09;5068378;28;69147;-37
2021/10/24 03:45:45;;;;;;;;;;;;;;;30.15;71.76;101066.84;5056684;28;67160;-37
2021/10/24 03:48:17;;;;;;;;;;;;;;;30.18;71.47;101067.25;5067738;28;69878;-37
2021/10/24 03:50:51;;;;;;;;;;;;;;;30.19;71.32;101068.91;5049121;28;65593;-37
2021/10/24 03:53:21;;;;;;;;;;;;;;;30.21;71.27;101061.41;5064878;28;70277;-38
2021/10/24 03:55:52;;;;;;;;;;;;;;;30.23;71.39;101064.78;5084395;27;66158;-36
2021/10/24 03:58:22;;;;;;;;;;;;;;;30.25;71.84;101062.66;5068628;28;70956;-36
2021/10/24 04:00:54;;;;;;;;;;;;;;;30.27;71.13;101063.28;5049560;28;66086;-37
2021/10/24 04:03:30;;;;;;;;;;;;;;;30.28;71.26;101053.28;5048995;28;70140;-37
2021/10/24 04:06:03;;;;;;;;;;;;;;;30.31;71.06;101052.03;5076055;28;65099;-37
2021/10/24 04:08:35;;;;;;;;;;;;;;;30.33;70.91;101047.25;5074897;28;69762;-36
2021/10/24 04:11:06;;;;;;;;;;;;;;;30.35;71.22;101045.16;5052231;28;65892;-37
2021/10/24 04:13:36;;;;;;;;;;;;;;;30.35;70.80;101035.16;5061250;28;70827;-37
2021/10/24 04:16:11;;;;;;;;;;;;;;;30.37;70.71;101030.38;5054324;28;65570;-37
2021/10/24 04:18:44;;;;;;;;;;;;;;;30.38;71.13;101026.63;5055150;28;69527;-37
2021/10/24 04:21:15;;;;;;;;;;;;;;;30.41;70.72;101022.66;5053717;28;65502;-40
2021/10/24 04:23:46;;;;;;;;;;;;;;;30.42;70.98;101019.75;5059350;28;70065;-36
2021/10/24 04:26:16;;;;;;;;;;;;;;;30.43;71.17;101013.28;5062836;28;65720;-37
2021/10/24 04:28:47;;;;;;;;;;;;;;;30.45;70.98;101008.50;5055355;28;69454;-36
2021/10/24 04:31:19;;;;;;;;;;;;;;;30.48;71.04;101001.81;5039908;28;66960;-36
2021/10/24 04:33:50;;;;;;;;;;;;;;;30.49;70.81;101000.78;5063423;28;70294;-37
2021/10/24 04:36:21;;;;;;;;;;;;;;;30.51;70.98;100990.56;5053114;28;66487;-36
2021/10/24 04:38:51;;;;;;;;;;;;;;;30.53;70.44;100991.16;5060597;28;69940;-36
2021/10/24 04:41:22;;;;;;;;;;;;;;;30.55;70.45;100978.25;5060970;28;65690;-35
2021/10/24 04:43:53;;;;;;;;;;;;;;;30.57;70.74;100973.44;5058901;28;69288;-37
2021/10/24 04:46:25;;;;;;;;;;;;;;;30.58;70.75;100969.69;5059071;28;66425;-36
2021/10/24 04:48:56;;;;;;;;;;;;;;;30.60;70.58;100967.59;5060786;28;69621;-36
2021/10/24 04:51:27;;;;;;;;;;;;;;;30.62;70.17;100965.50;5066926;28;66280;-36
2021/10/24 04:53:58;;;;;;;;;;;;;;;30.63;70.01;100956.34;5068868;27;69046;-36
2021/10/24 04:56:29;;;;;;;;;;;;;;;30.65;70.05;100948.84;5055391;28;66174;-36
2021/10/24 04:59:01;;;;;;;;;;;;;;;30.67;69.97;100945.88;5064234;27;69842;-36
2021/10/24 05:01:32;;;;;;;;;;;;;;;30.69;70.03;100943.81;5047613;28;66295;-36
2021/10/24 05:04:03;;;;;;;;;;;;;;;30.73;70.20;100934.22;5055013;28;70650;-36
2021/10/24 05:06:34;;;;;;;;;;;;;;;30.73;69.76;100924.22;5069193;27;66486;-37
2021/10/24 05:09:05;;;;;;;;;;;;;;;30.76;70.03;100913.97;5056900;28;70251;-36
2021/10/24 05:11:38;;;;;;;;;;;;;;;30.80;70.09;100912.53;5064336;27;65710;-37
2021/10/24 05:14:09;;;;;;;;;;;;;;;30.81;69.90;100920.41;5052327;28;70069;-36
2021/10/24 05:16:39;;;;;;;;;;;;;;;30.84;69.72;100913.72;5052457;28;67463;-36
2021/10/24 05:19:10;;;;;;;;;;;;;;;30.85;69.38;100918.13;5058840;28;69219;-36
2021/10/24 05:21:41;;;;;;;;;;;;;;;30.87;69.90;100907.88;5058955;28;65515;-36
2021/10/24 05:24:17;;;;;;;;;;;;;;;30.89;69.74;100911.19;5064066;28;70186;-36
2021/10/24 05:26:48;;;;;;;;;;;;;;;30.90;69.70;100913.69;5054474;28;66285;-36
2021/10/24 05:29:19;;;;;;;;;;;;;;;30.91;69.76;100900.97;5060257;28;69963;-37
2021/10/24 05:31:49;;;;;;;;;;;;;;;30.94;69.54;100897.84;5056127;28;65504;-37
2021/10/24 05:34:20;;;;;;;;;;;;;;;30.96;69.55;100898.44;5056748;28;70376;-36
2021/10/24 05:37:04;;;;;;;;;;;;;;;30.99;68.96;100889.88;5055185;28;66018;-37
2021/10/24 05:39:35;;;;;;;;;;;;;;;31.01;69.47;100887.78;5056874;28;69706;-36
2021/10/24 05:42:24;;;;;;;;;;;;;;;31.04;69.23;100881.09;5048298;28;66671;-36
2021/10/24 05:44:54;;;;;;;;;;;;;;;31.04;68.72;100879.22;5072286;28;70372;-36
2021/10/24 05:47:28;;;;;;;;;;;;;;;31.07;68.90;100873.34;5053631;28;66236;-35
2021/10/24 05:50:05;;;;;;;;;;;;;;;31.08;68.84;100872.28;5070375;28;70564;-36
2021/10/24 05:52:35;;;;;;;;;;;;;;;31.10;68.84;100869.38;5052287;28;65659;-37
2021/10/24 05:55:07;;;;;;;;;;;;;;;31.12;68.76;100862.69;5056415;28;70428;-37
2021/10/24 05:57:38;;;;;;;;;;;;;;;31.13;68.92;100856.19;5053154;28;66330;-37
2021/10/24 06:00:46;;;;;;;;;;;;;;;31.14;69.12;100849.72;5031693;28;70457;-37
2021/10/24 06:03:37;;;;;;;;;;;;;;;31.15;68.70;100837.84;5023465;28;66707;-37
2021/10/24 06:06:26;;;;;;;;;;;;;;;31.19;68.65;100834.69;5047810;28;70372;-37
2021/10/24 06:09:01;;;;;;;;;;;;;;;31.21;68.41;100824.47;5055140;28;65699;-37
2021/10/24 06:11:46;;;;;;;;;;;;;;;31.24;68.48;100822.13;5051294;28;70153;-36
2021/10/24 06:14:17;;;;;;;;;;;;;;;31.27;68.24;100818.97;5072013;27;66702;-35
2021/10/24 06:16:47;;;;;;;;;;;;;;;31.30;68.67;100820.41;5060331;28;69956;-36
2021/10/24 06:19:18;;;;;;;;;;;;;;;31.32;68.86;100812.88;5050853;28;66610;-36
2021/10/24 06:21:49;;;;;;;;;;;;;;;31.35;68.39;100807.81;5061249;28;69962;-35
2021/10/24 06:24:27;;;;;;;;;;;;;;;31.38;68.62;100804.69;5074207;28;66926;-36
2021/10/24 06:26:59;;;;;;;;;;;;;;;31.41;68.39;100800.69;5064361;28;69927;-36
2021/10/24 06:29:34;;;;;;;;;;;;;;;31.44;68.25;100789.41;5062591;28;64914;-37
2021/10/24 06:32:07;;;;;;;;;;;;;;;31.44;68.37;100775.84;5057509;28;70385;-38
2021/10/24 06:34:55;;;;;;;;;;;;;;;31.49;68.58;100770.59;5050727;28;65258;-36
2021/10/24 06:37:46;;;;;;;;;;;;;;;31.50;68.63;100766.81;5069773;27;68732;-37
2021/10/24 06:40:19;;;;;;;;;;;;;;;31.53;68.57;100769.06;5062360;28;67106;-37
2021/10/24 06:42:56;;;;;;;;;;;;;;;31.53;68.25;100766.34;5071706;28;70675;-36
2021/10/24 06:45:51;;;;;;;;;;;;;;;31.57;68.52;100762.13;5034528;28;65690;-36
2021/10/24 06:48:43;;;;;;;;;;;;;;;31.61;68.20;100757.06;5048908;28;68758;-36
2021/10/24 06:51:21;;;;;;;;;;;;;;;31.64;68.30;100750.38;5065935;28;65466;-37
2021/10/24 06:54:12;;;;;;;;;;;;;;;31.67;68.07;100736.34;5038626;28;70436;-35
2021/10/24 06:57:01;;;;;;;;;;;;;;;31.71;68.07;100734.84;5049011;28;66053;-37
2021/10/24 06:59:52;;;;;;;;;;;;;;;31.74;68.33;100723.53;5056781;28;70383;-36
2021/10/24 07:02:42;;;;;;;;;;;;;;;31.78;68.26;100724.72;5045391;28;67130;-36
2021/10/24 07:05:31;;;;;;;;;;;;;;;31.81;68.02;100727.78;5053094;28;69986;-36
2021/10/24 07:08:07;;;;;;;;;;;;;;;31.86;68.28;100727.13;5051944;28;66008;-36
2021/10/24 07:10:38;;;;;;;;;;;;;;;31.88;67.68;100725.00;5057302;28;69824;-37
2021/10/24 07:13:08;;;;;;;;;;;;;;;31.92;67.52;100725.41;5069192;28;66300;-37
2021/10/24 07:15:40;;;;;;;;;;;;;;;31.93;67.71;100717.03;5054667;28;68837;-37
2021/10/24 07:18:10;;;;;;;;;;;;;;;31.96;67.90;100715.75;5072809;27;65758;-37
2021/10/24 07:20:41;;;;;;;;;;;;;;;31.97;67.41;100712.78;5052125;28;70709;-37
2021/10/24 07:23:14;;;;;;;;;;;;;;;32.00;67.39;100711.50;5057319;28;43194;-37
2021/10/24 07:26:04;;;;;;;;;;;;;;;32.01;67.84;100711.28;5051571;28;69803;-36
2021/10/24 07:28:35;;;;;;;;;;;;;;;32.04;67.50;100702.69;5052005;28;65715;-37
2021/10/24 07:31:25;;;;;;;;;;;;;;;32.08;67.23;100694.06;5055295;28;69274;-36
2021/10/24 07:34:16;;;;;;;;;;;;;;;32.10;67.52;100698.22;5036595;28;65351;-36
2021/10/24 07:36:47;;;;;;;;;;;;;;;32.13;67.05;100705.88;5048256;28;69260;-36
2021/10/24 07:39:19;;;;;;;;;;;;;;;32.16;66.94;100696.44;5063457;28;66415;-37
2021/10/24 07:41:52;;;;;;;;;;;;;;;32.19;67.14;100701.41;5068849;28;70326;-37
2021/10/24 07:44:24;;;;;;;;;;;;;;;32.21;67.10;100702.00;5036785;28;66897;-37
2021/10/24 07:46:56;;;;;;;;;;;;;;;32.24;67.10;100698.81;5062864;28;70188;-38
2021/10/24 07:49:28;;;;;;;;;;;;;;;32.27;67.25;100684.78;5055655;28;66894;-36
2021/10/24 07:51:59;;;;;;;;;;;;;;;32.30;67.11;100689.72;5057403;28;69884;-37
2021/10/24 07:54:30;;;;;;;;;;;;;;;32.31;67.06;100680.50;5063572;28;65526;-37
2021/10/24 07:57:01;;;;;;;;;;;;;;;32.34;66.81;100679.22;5036292;28;69151;-36
2021/10/24 07:59:34;;;;;;;;;;;;;;;32.34;67.41;100682.75;5063329;28;66740;-37
2021/10/24 08:02:06;;;;;;;;;;;;;;;32.37;67.18;100697.75;5054643;28;69335;-37
2021/10/24 08:04:37;;;;;;;;;;;;;;;32.37;67.20;100717.56;5034041;28;65251;-37
2021/10/24 08:07:07;;;;;;;;;;;;;;;32.39;67.01;100722.78;5073763;28;69426;-36
2021/10/24 08:09:39;;;;;;;;;;;;;;;32.40;67.03;100728.00;5039536;28;65222;-37
2021/10/24 08:12:10;;;;;;;;;;;;;;;32.41;66.99;100717.97;5053596;28;70729;-38
2021/10/24 08:14:41;;;;;;;;;;;;;;;32.42;66.85;100708.75;5073170;28;66059;-37
2021/10/24 08:17:12;;;;;;;;;;;;;;;32.43;66.86;100692.22;5067694;28;70280;-36
2021/10/24 08:19:50;;;;;;;;;;;;;;;32.43;67.08;100689.50;5036208;28;66274;-37
2021/10/24 08:22:23;;;;;;;;;;;;;;;32.44;66.69;100691.16;5052155;28;70240;-37
2021/10/24 08:24:54;;;;;;;;;;;;;;;32.45;66.62;100700.94;5051898;28;66397;-37
2021/10/24 08:27:30;;;;;;;;;;;;;;;32.46;66.84;100699.09;5055008;28;69945;-38
2021/10/24 08:30:21;;;;;;;;;;;;;;;32.47;66.75;100707.00;5030141;28;65945;-37
2021/10/24 08:33:12;;;;;;;;;;;;;;;32.49;66.72;100710.31;5057478;28;68060;-38
2021/10/24 08:35:43;;;;;;;;;;;;;;;32.49;66.75;100721.19;5057614;28;66731;-36
2021/10/24 08:38:14;;;;;;;;;;;;;;;32.48;66.89;100713.25;5058196;28;69769;-37
2021/10/24 08:40:46;;;;;;;;;;;;;;;32.48;66.76;100714.09;5059595;28;66663;-38
2021/10/24 08:43:26;;;;;;;;;;;;;;;32.48;66.63;100708.69;5062611;28;69169;-36
2021/10/24 08:45:58;;;;;;;;;;;;;;;32.47;66.40;100703.47;5064348;27;66338;-37
2021/10/24 08:48:31;;;;;;;;;;;;;;;32.46;66.94;100689.06;5066231;28;69133;-36
2021/10/24 08:51:03;;;;;;;;;;;;;;;32.46;66.57;100701.81;5057532;28;66507;-36
2021/10/24 08:53:35;;;;;;;;;;;;;;;32.44;66.87;100707.44;5057836;28;70823;-38
2021/10/24 08:56:06;;;;;;;;;;;;;;;32.44;66.76;100726.44;5060234;28;66661;-37
2021/10/24 08:58:37;;;;;;;;;;;;;;;32.44;66.69;100761.75;5053587;28;69803;-37
2021/10/24 09:01:08;;;;;;;;;;;;;;;32.44;66.42;100759.03;5054741;28;65316;-37
2021/10/24 09:03:38;;;;;;;;;;;;;;;32.44;66.24;100801.66;5056424;28;69852;-36
2021/10/24 09:06:09;;;;;;;;;;;;;;;32.44;66.03;100854.06;5060549;28;65857;-37
2021/10/24 09:08:40;;;;;;;;;;;;;;;32.44;65.92;100881.22;5055322;28;69975;-37
2021/10/24 09:11:10;;;;;;;;;;;;;;;32.42;65.77;100872.44;5052436;28;65629;-38
2021/10/24 09:13:48;;;;;;;;;;;;;;;32.40;65.78;100871.88;5057828;28;69821;-37
2021/10/24 09:16:18;;;;;;;;;;;;;;;32.35;66.25;100879.88;5058501;28;65736;-37
2021/10/24 09:18:49;;;;;;;;;;;;;;;32.32;66.72;100880.34;5056605;28;70759;-37
2021/10/24 09:21:25;;;;;;;;;;;;;;;32.29;66.81;100907.94;5055858;28;66561;-37
2021/10/24 09:24:10;;;;;;;;;;;;;;;32.28;66.94;100919.84;5050690;28;70060;-36
2021/10/24 09:26:41;;;;;;;;;;;;;;;32.26;67.05;100928.25;5054139;28;66325;-36
2021/10/24 09:29:16;;;;;;;;;;;;;;;32.24;66.81;100907.81;5055642;28;69895;-36
2021/10/24 09:31:52;;;;;;;;;;;;;;;32.20;67.46;100868.59;5047263;28;65623;-37
2021/10/24 09:34:26;;;;;;;;;;;;;;;32.18;67.16;100859.84;5052342;28;70179;-37
2021/10/24 09:37:19;;;;;;;;;;;;;;;32.16;67.57;100856.56;5051169;28;65737;-37
2021/10/24 09:40:29;;;;;;;;;;;;;;;32.15;67.70;100865.72;5027450;28;69371;-37
2021/10/24 09:43:13;;;;;;;;;;;;;;;32.04;66.92;100870.91;5051936;28;65576;-37
2021/10/24 09:46:03;;;;;;;;;;;;;;;31.98;67.35;100876.41;5051518;28;70172;-38
2021/10/24 09:48:35;;;;;;;;;;;;;;;31.94;68.24;100886.88;5046230;28;66697;-37
2021/10/24 09:51:10;;;;;;;;;;;;;;;31.94;68.30;100875.22;5055223;28;69893;-36
2021/10/24 09:53:42;;;;;;;;;;;;;;;31.92;68.51;100886.28;5052456;28;65673;-37
2021/10/24 09:56:14;;;;;;;;;;;;;;;31.89;68.60;100878.56;5051581;28;70062;-37
2021/10/24 09:58:46;;;;;;;;;;;;;;;31.82;70.19;100866.97;5059238;28;66792;-37
2021/10/24 10:01:19;;;;;;;;;;;;;;;31.83;69.78;100883.00;5062544;28;69832;-36
2021/10/24 10:03:50;;;;;;;;;;;;;;;31.81;69.50;100898.69;5056432;28;67037;-36
2021/10/24 10:06:23;;;;;;;;;;;;;;;31.78;69.44;100898.31;5062054;27;70177;-36
2021/10/24 10:08:53;;;;;;;;;;;;;;;31.76;69.60;100905.84;5058830;28;66171;-37
2021/10/24 10:11:30;;;;;;;;;;;;;;;31.73;69.81;100890.88;5054502;28;70594;-37
2021/10/24 10:14:13;;;;;;;;;;;;;;;31.72;70.17;100882.94;5057753;28;66812;-37
2021/10/24 10:16:46;;;;;;;;;;;;;;;31.68;69.82;100882.56;5056013;28;70159;-36
2021/10/24 10:19:27;;;;;;;;;;;;;;;31.66;70.03;100886.56;5052553;28;66522;-36
2021/10/24 10:22:30;;;;;;;;;;;;;;;31.61;70.15;100882.63;5051725;28;69696;-37
2021/10/24 10:25:09;;;;;;;;;;;;;;;31.58;70.10;100888.50;5047334;28;66369;-36
2021/10/24 10:27:40;;;;;;;;;;;;;;;31.54;70.30;100887.31;5057804;28;69637;-37
2021/10/24 10:30:14;;;;;;;;;;;;;;;31.51;70.08;100876.91;5055218;28;66710;-37
2021/10/24 10:32:46;;;;;;;;;;;;;;;31.46;70.11;100879.47;5056885;28;70219;-37
2021/10/24 10:35:21;;;;;;;;;;;;;;;31.44;70.29;100876.16;5058484;28;66917;-38
2021/10/24 10:37:56;;;;;;;;;;;;;;;31.40;70.26;100864.13;5059640;28;70259;-38
2021/10/24 10:40:29;;;;;;;;;;;;;;;31.38;70.44;100869.75;5057823;28;65696;-37
2021/10/24 10:43:11;;;;;;;;;;;;;;;31.36;70.20;100873.72;5058078;28;69961;-37
2021/10/24 10:45:43;;;;;;;;;;;;;;;31.31;70.67;100865.41;5048175;28;66741;-37
2021/10/24 10:48:29;;;;;;;;;;;;;;;31.30;70.33;100869.19;5045300;27;69513;-37
2021/10/24 10:51:18;;;;;;;;;;;;;;;31.03;72.16;100868.59;5052531;28;66360;-38
2021/10/24 10:53:48;;;;;;;;;;;;;;;30.86;73.49;100879.13;5051545;28;70391;-36
2021/10/24 10:56:20;;;;;;;;;;;;;;;30.74;74.13;100892.53;5051638;28;66718;-37
2021/10/24 10:58:52;;;;;;;;;;;;;;;30.68;74.32;100902.38;5042568;28;69192;-36
2021/10/24 11:01:39;;;;;;;;;;;;;;;30.61;74.16;100912.41;5046131;28;65597;-37
2021/10/24 11:04:21;;;;;;;;;;;;;;;30.57;74.60;100924.72;5060163;28;69251;-37
2021/10/24 11:06:53;;;;;;;;;;;;;;;30.51;75.18;100925.59;5048248;28;65519;-38
2021/10/24 11:09:40;;;;;;;;;;;;;;;30.48;75.04;100936.84;5049651;28;69868;-37
2021/10/24 11:12:35;;;;;;;;;;;;;;;30.48;76.05;100932.28;5051565;28;66279;-37
2021/10/24 11:15:38;;;;;;;;;;;;;;;30.45;75.83;100931.84;5057734;28;70284;-37
2021/10/24 11:18:28;;;;;;;;;;;;;;;30.43;76.33;100939.38;5029007;28;66093;-36
2021/10/24 11:21:00;;;;;;;;;;;;;;;30.38;76.39;100926.47;5036821;28;68617;-37
2021/10/24 11:23:32;;;;;;;;;;;;;;;30.39;76.36;100932.72;5056107;28;65740;-37
2021/10/24 11:26:06;;;;;;;;;;;;;;;30.37;76.38;100937.50;5053979;28;70351;-36
2021/10/24 11:28:36;;;;;;;;;;;;;;;30.36;76.14;100938.56;5053662;28;66086;-36
2021/10/24 11:31:07;;;;;;;;;;;;;;;30.35;76.33;100940.44;5052474;28;70296;-36
2021/10/24 11:33:46;;;;;;;;;;;;;;;30.34;75.96;100941.50;5061464;27;66119;-38
2021/10/24 11:36:27;;;;;;;;;;;;;;;30.32;76.14;100938.19;5039883;28;69534;-36
2021/10/24 11:38:59;;;;;;;;;;;;;;;30.32;76.19;100940.06;5054467;28;66414;-37
2021/10/24 11:41:32;;;;;;;;;;;;;;;30.30;76.56;100934.03;5044487;28;70445;-36
2021/10/24 11:44:08;;;;;;;;;;;;;;;30.28;76.38;100937.78;5049827;28;66047;-36
2021/10/24 11:46:39;;;;;;;;;;;;;;;30.28;75.77;100943.19;5069605;28;69441;-36
2021/10/24 11:49:10;;;;;;;;;;;;;;;30.13;76.20;100926.34;5055792;28;66863;-37
2021/10/24 11:51:49;;;;;;;;;;;;;;;30.27;76.11;100946.94;5057651;28;69987;-37
2021/10/24 11:54:22;;;;;;;;;;;;;;;30.25;75.91;100954.41;5053103;28;67005;-36
2021/10/24 11:57:15;;;;;;;;;;;;;;;30.22;76.12;100949.44;5066748;28;70826;-36
2021/10/24 11:59:50;;;;;;;;;;;;;;;30.23;75.88;100950.28;5053860;28;65329;-37
2021/10/24 12:02:22;;;;;;;;;;;;;;;30.24;76.06;100960.88;5056910;28;70398;-36
2021/10/24 12:04:55;;;;;;;;;;;;;;;30.23;75.62;100966.53;5055304;28;66269;-37
2021/10/24 12:07:26;;;;;;;;;;;;;;;30.21;75.72;100980.22;5053305;28;69721;-36
2021/10/24 12:10:00;;;;;;;;;;;;;;;30.25;75.32;100984.19;5059859;28;66152;-36
2021/10/24 12:12:36;;;;;;;;;;;;;;;30.27;75.87;100984.00;5040639;28;70412;-37
2021/10/24 12:15:13;;;;;;;;;;;;;;;30.26;75.47;100982.34;5053631;28;66866;-36
2021/10/24 12:17:44;;;;;;;;;;;;;;;30.23;75.56;100978.19;5044894;28;69499;-37
2021/10/24 12:20:29;;;;;;;;;;;;;;;30.24;75.55;100984.41;5055431;27;65795;-37
2021/10/24 12:23:19;;;;;;;;;;;;;;;30.20;75.05;100993.97;5052905;28;69904;-36
2021/10/24 12:26:07;;;;;;;;;;;;;;;30.20;75.18;100994.81;5057396;28;66584;-36
2021/10/24 12:28:40;;;;;;;;;;;;;;;30.20;75.01;100997.53;5059626;28;69641;-37
2021/10/24 12:31:19;;;;;;;;;;;;;;;30.15;75.12;100983.78;5052469;28;66866;-37
2021/10/24 12:34:10;;;;;;;;;;;;;;;30.15;75.79;101000.03;5057779;28;69469;-36
2021/10/24 12:37:16;;;;;;;;;;;;;;;30.16;75.18;100998.16;5106748;27;44407;-38
2021/10/24 12:40:16;;;;;;;;;;;;;;;30.12;75.41;101002.34;5106137;27;69925;-38
2021/10/24 12:43:13;;;;;;;;;;;;;;;30.08;76.22;101007.31;5101282;27;66817;-38
2021/10/24 12:46:04;;;;;;;;;;;;;;;30.03;77.52;101020.63;5108235;27;69515;-37
2021/10/24 12:48:46;;;;;;;;;;;;;;;30.01;78.05;101022.75;5106701;27;66506;-38
2021/10/24 12:51:30;;;;;;;;;;;;;;;30.00;78.47;101034.59;5106689;27;72001;-37
2021/10/24 12:54:28;;;;;;;;;;;;;;;29.98;78.61;101039.41;5097581;27;66393;-37
2021/10/24 12:57:01;;;;;;;;;;;;;;;29.95;78.83;101039.78;5100280;27;69871;-37
2021/10/24 12:59:45;;;;;;;;;;;;;;;29.91;79.07;101050.22;5060449;27;65849;-44
2021/10/24 13:02:26;;;;;;;;;;;;;;;29.91;79.26;101046.69;5067465;27;69388;-37
2021/10/24 13:05:17;;;;;;;;;;;;;;;29.90;79.85;101053.97;5046788;27;66307;-37
2021/10/24 13:08:11;;;;;;;;;;;;;;;29.88;79.94;101056.03;5054752;28;69448;-38
2021/10/24 13:10:49;;;;;;;;;;;;;;;29.87;79.51;101058.97;5054768;27;66340;-39
2021/10/24 13:13:47;;;;;;;;;;;;;;;29.84;79.96;101050.22;5040676;28;70154;-36
2021/10/24 13:16:32;;;;;;;;;;;;;;;29.78;79.02;101052.91;5038473;28;65476;-41